createdAt,value
2019-05-15T00:00:58.847Z,2.45
2019-05-15T00:01:58.467Z,2.40
2019-05-15T00:02:58.970Z,2.33
2019-05-15T00:03:58.529Z,2.33
2019-05-15T00:04:58.508Z,2.31
2019-05-15T00:05:58.613Z,2.28
2019-05-15T00:06:58.271Z,2.13
2019-05-15T00:07:59.298Z,2.09
2019-05-15T00:08:58.798Z,2.01
2019-05-15T00:09:58.594Z,2.08
2019-05-15T00:10:58.679Z,1.99
2019-05-15T00:11:59.022Z,1.91
2019-05-15T00:12:58.085Z,1.91
2019-05-15T00:13:58.981Z,1.85
2019-05-15T00:14:58.131Z,1.82
2019-05-15T00:15:58.996Z,1.83
2019-05-15T00:16:58.644Z,1.90
2019-05-15T00:17:57.946Z,1.91
2019-05-15T00:18:59.076Z,1.97
2019-05-15T00:19:58.235Z,1.97
2019-05-15T00:20:59.537Z,2.06
2019-05-15T00:21:58.556Z,2.01
2019-05-15T00:22:58.815Z,2.06
2019-05-15T00:23:58.641Z,2.02
2019-05-15T00:24:58.175Z,1.97
2019-05-15T00:25:58.452Z,2.10
2019-05-15T00:26:58.865Z,2.12
2019-05-15T00:27:58.245Z,2.22
2019-05-15T00:29:09.506Z,2.15
2019-05-15T00:29:58.290Z,2.20
2019-05-15T00:30:58.274Z,2.26
2019-05-15T00:31:58.948Z,2.13
2019-05-15T00:32:58.866Z,2.19
2019-05-15T00:33:58.912Z,2.13
2019-05-15T00:34:58.292Z,2.13
2019-05-15T00:35:58.988Z,2.19
2019-05-15T00:36:58.390Z,2.06
2019-05-15T00:37:58.513Z,2.13
2019-05-15T00:38:59.066Z,2.17
2019-05-15T00:39:59.075Z,2.23
2019-05-15T00:40:58.448Z,2.22
2019-05-15T00:41:59.030Z,2.20
2019-05-15T00:42:57.921Z,2.27
2019-05-15T00:43:58.495Z,2.19
2019-05-15T00:44:58.466Z,2.15
2019-05-15T00:45:58.558Z,2.13
2019-05-15T00:46:58.233Z,2.22
2019-05-15T00:47:57.941Z,2.13
2019-05-15T00:48:59.223Z,2.12
2019-05-15T00:49:58.061Z,2.12
2019-05-15T00:50:59.017Z,2.17
2019-05-15T00:51:59.029Z,2.10
2019-05-15T00:52:58.960Z,2.02
2019-05-15T00:53:58.932Z,2.09
2019-05-15T00:54:58.963Z,1.98
2019-05-15T00:55:58.054Z,1.97
2019-05-15T00:56:57.956Z,1.89
2019-05-15T00:57:58.946Z,1.85
2019-05-15T00:58:58.845Z,1.83
2019-05-15T00:59:58.911Z,1.80
2019-05-15T01:00:59.026Z,1.64
2019-05-15T01:01:59.292Z,1.61
2019-05-15T01:02:57.855Z,1.57
2019-05-15T01:03:58.632Z,1.47
2019-05-15T01:04:58.512Z,1.40
2019-05-15T01:05:58.618Z,1.25
2019-05-15T01:06:58.848Z,1.25
2019-05-15T01:07:58.681Z,1.19
2019-05-15T01:08:58.878Z,1.18
2019-05-15T01:09:57.954Z,1.24
2019-05-15T01:10:58.213Z,1.21
2019-05-15T01:11:58.671Z,1.26
2019-05-15T01:12:58.370Z,1.29
2019-05-15T01:13:58.539Z,1.32
2019-05-15T01:14:58.336Z,1.33
2019-05-15T01:15:58.259Z,1.37
2019-05-15T01:16:58.239Z,1.39
2019-05-15T01:17:58.300Z,1.40
2019-05-15T01:18:58.560Z,1.33
2019-05-15T01:19:58.725Z,1.29
2019-05-15T01:20:58.641Z,1.18
2019-05-15T01:21:58.726Z,1.10
2019-05-15T01:22:59.021Z,1.06
2019-05-15T01:23:58.803Z,1.03
2019-05-15T01:24:58.845Z,0.89
2019-05-15T01:25:58.704Z,0.85
2019-05-15T01:26:58.529Z,0.80
2019-05-15T01:27:58.336Z,0.76
2019-05-15T01:28:58.410Z,0.79
2019-05-15T01:29:58.170Z,0.80
2019-05-15T01:30:56.604Z,0.68
2019-05-15T01:31:59.100Z,0.72
2019-05-15T01:32:59.050Z,0.71
2019-05-15T01:33:58.302Z,0.65
2019-05-15T01:34:58.066Z,0.72
2019-05-15T01:35:58.887Z,0.53
2019-05-15T01:36:58.954Z,0.62
2019-05-15T01:37:58.520Z,0.65
2019-05-15T01:38:58.409Z,0.68
2019-05-15T01:39:58.131Z,0.64
2019-05-15T01:40:58.981Z,0.58
2019-05-15T01:41:58.427Z,0.52
2019-05-15T01:42:58.281Z,0.53
2019-05-15T01:43:58.120Z,0.46
2019-05-15T01:44:58.828Z,0.48
2019-05-15T01:45:58.732Z,0.48
2019-05-15T01:46:58.888Z,0.42
2019-05-15T01:47:58.561Z,0.41
2019-05-15T01:48:58.504Z,0.42
2019-05-15T01:49:58.291Z,0.41
2019-05-15T01:50:58.488Z,0.38
2019-05-15T01:51:58.488Z,0.43
2019-05-15T01:52:58.488Z,0.42
2019-05-15T01:53:58.262Z,0.43
2019-05-15T01:54:58.263Z,0.46
2019-05-15T01:55:58.763Z,0.45
2019-05-15T01:56:58.562Z,0.42
2019-05-15T01:57:58.178Z,0.41
2019-05-15T01:58:57.961Z,0.33
2019-05-15T01:59:58.293Z,0.42
2019-05-15T02:00:56.272Z,0.30
2019-05-15T02:01:58.868Z,0.31
2019-05-15T02:02:58.611Z,0.39
2019-05-15T02:03:56.247Z,0.41
2019-05-15T02:04:58.962Z,0.42
2019-05-15T02:05:58.486Z,0.49
2019-05-15T02:06:58.748Z,0.42
2019-05-15T02:07:58.398Z,0.41
2019-05-15T02:08:58.545Z,0.34
2019-05-15T02:09:58.212Z,0.30
2019-05-15T02:10:58.607Z,0.28
2019-05-15T02:11:58.158Z,0.24
2019-05-15T02:12:58.634Z,0.15
2019-05-15T02:13:56.134Z,0.13
2019-05-15T02:14:56.148Z,0.05
2019-05-15T02:15:56.118Z,-0.04
2019-05-15T02:16:56.126Z,-0.04
2019-05-15T02:17:56.094Z,-0.15
2019-05-15T02:18:58.096Z,0.00
2019-05-15T02:19:56.083Z,-0.11
2019-05-15T02:20:58.519Z,0.00
2019-05-15T02:21:57.909Z,-0.08
2019-05-15T02:22:56.061Z,-0.04
2019-05-15T02:23:56.028Z,-0.05
2019-05-15T02:24:56.014Z,-0.08
2019-05-15T02:25:56.007Z,0.00
2019-05-15T02:26:56.025Z,-0.12
2019-05-15T02:27:58.570Z,-0.12
2019-05-15T02:28:55.973Z,-0.18
2019-05-15T02:30:12.989Z,-0.19
2019-05-15T02:30:58.719Z,-0.13
2019-05-15T02:31:58.857Z,-0.27
2019-05-15T02:32:58.916Z,-0.24
2019-05-15T02:33:58.824Z,-0.26
2019-05-15T02:34:58.871Z,-0.24
2019-05-15T02:35:55.900Z,-0.24
2019-05-15T02:36:55.890Z,-0.18
2019-05-15T02:37:55.892Z,-0.27
2019-05-15T02:38:59.474Z,-0.26
2019-05-15T02:39:58.779Z,-0.33
2019-05-15T02:40:59.005Z,-0.23
2019-05-15T02:41:55.853Z,-0.30
2019-05-15T02:42:58.964Z,-0.37
2019-05-15T02:43:59.013Z,-0.31
2019-05-15T02:44:58.509Z,-0.31
2019-05-15T02:45:55.801Z,-0.34
2019-05-15T02:46:58.622Z,-0.36
2019-05-15T02:47:55.782Z,-0.36
2019-05-15T02:48:55.774Z,-0.39
2019-05-15T02:49:55.754Z,-0.39
2019-05-15T02:50:58.658Z,-0.36
2019-05-15T02:51:55.729Z,-0.44
2019-05-15T02:52:55.736Z,-0.34
2019-05-15T02:53:58.378Z,-0.36
2019-05-15T02:54:55.696Z,-0.39
2019-05-15T02:55:55.684Z,-0.39
2019-05-15T02:56:58.778Z,-0.39
2019-05-15T02:57:58.891Z,-0.34
2019-05-15T02:58:55.652Z,-0.24
2019-05-15T02:59:55.655Z,-0.26
2019-05-15T03:00:58.904Z,-0.19
2019-05-15T03:01:55.620Z,-0.19
2019-05-15T03:02:55.643Z,-0.27
2019-05-15T03:03:55.624Z,-0.30
2019-05-15T03:04:55.610Z,-0.30
2019-05-15T03:05:55.584Z,-0.34
2019-05-15T03:06:55.567Z,-0.41
2019-05-15T03:07:59.090Z,-0.41
2019-05-15T03:08:55.559Z,-0.39
2019-05-15T03:09:55.557Z,-0.39
2019-05-15T03:10:58.951Z,-0.41
2019-05-15T03:11:58.458Z,-0.37
2019-05-15T03:12:55.502Z,-0.51
2019-05-15T03:13:55.523Z,-0.47
2019-05-15T03:14:55.483Z,-0.48
2019-05-15T03:15:55.475Z,-0.52
2019-05-15T03:16:55.477Z,-0.47
2019-05-15T03:17:55.458Z,-0.34
2019-05-15T03:18:56.624Z,-0.27
2019-05-15T03:19:58.900Z,-0.34
2019-05-15T03:20:55.418Z,-0.37
2019-05-15T03:21:55.408Z,-0.36
2019-05-15T03:22:55.409Z,-0.54
2019-05-15T03:23:55.382Z,-0.44
2019-05-15T03:24:55.388Z,-0.47
2019-05-15T03:25:55.363Z,-0.33
2019-05-15T03:26:55.375Z,-0.29
2019-05-15T03:27:55.342Z,-0.37
2019-05-15T03:28:55.343Z,-0.39
2019-05-15T03:29:55.320Z,-0.24
2019-05-15T03:31:41.448Z,-0.23
2019-05-15T03:32:13.180Z,-0.34
2019-05-15T03:33:02.022Z,-0.33
2019-05-15T03:34:02.107Z,-0.34
2019-05-15T03:35:03.575Z,-0.31
2019-05-15T03:36:01.763Z,-0.39
2019-05-15T03:36:56.261Z,-0.36
2019-05-15T03:37:55.270Z,-0.27
2019-05-15T03:38:55.236Z,-0.31
2019-05-15T03:39:55.215Z,-0.37
2019-05-15T03:40:55.215Z,-0.39
2019-05-15T03:41:55.192Z,-0.29
2019-05-15T03:42:55.183Z,-0.23
2019-05-15T03:43:55.184Z,-0.24
2019-05-15T03:44:55.161Z,-0.24
2019-05-15T03:45:55.157Z,-0.22
2019-05-15T03:46:55.154Z,-0.23
2019-05-15T03:47:55.146Z,-0.29
2019-05-15T03:48:55.118Z,-0.31
2019-05-15T03:49:55.126Z,-0.22
2019-05-15T03:50:55.098Z,-0.23
2019-05-15T03:51:55.092Z,-0.27
2019-05-15T03:52:55.086Z,-0.27
2019-05-15T03:53:55.070Z,-0.24
2019-05-15T03:54:55.083Z,-0.24
2019-05-15T03:55:55.046Z,-0.18
2019-05-15T03:56:55.032Z,-0.18
2019-05-15T03:57:55.021Z,-0.29
2019-05-15T03:58:55.021Z,-0.15
2019-05-15T03:59:55.011Z,-0.16
2019-05-15T04:00:55.009Z,-0.18
2019-05-15T04:01:54.988Z,-0.16
2019-05-15T04:02:54.965Z,-0.18
2019-05-15T04:03:54.955Z,-0.12
2019-05-15T04:04:58.031Z,-0.19
2019-05-15T04:05:55.952Z,0.00
2019-05-15T04:06:54.928Z,-0.01
2019-05-15T04:07:54.919Z,-0.06
2019-05-15T04:08:54.901Z,-0.08
2019-05-15T04:09:54.899Z,-0.05
2019-05-15T04:10:55.038Z,0.12
2019-05-15T04:11:54.882Z,0.02
2019-05-15T04:12:54.868Z,0.00
2019-05-15T04:13:54.858Z,0.13
2019-05-15T04:14:54.844Z,0.13
2019-05-15T04:15:54.836Z,0.24
2019-05-15T04:16:54.841Z,0.23
2019-05-15T04:17:54.810Z,0.31
2019-05-15T04:18:54.796Z,0.36
2019-05-15T04:19:54.786Z,0.28
2019-05-15T04:20:54.779Z,0.27
2019-05-15T04:21:54.776Z,0.30
2019-05-15T04:22:54.769Z,0.28
2019-05-15T04:23:54.757Z,0.30
2019-05-15T04:24:54.734Z,0.36
2019-05-15T04:25:54.721Z,0.28
2019-05-15T04:26:54.713Z,0.38
2019-05-15T04:27:54.738Z,0.41
2019-05-15T04:28:54.706Z,0.49
2019-05-15T04:29:54.677Z,0.58
2019-05-15T04:30:54.667Z,0.67
2019-05-15T04:32:00.983Z,0.58
2019-05-15T04:32:55.658Z,0.83
2019-05-15T04:33:54.636Z,0.61
2019-05-15T04:34:54.666Z,0.68
2019-05-15T04:35:54.630Z,0.78
2019-05-15T04:36:54.602Z,0.61
2019-05-15T04:37:54.593Z,0.57
2019-05-15T04:38:54.586Z,0.75
2019-05-15T04:39:54.588Z,0.65
2019-05-15T04:40:54.602Z,0.68
2019-05-15T04:41:54.550Z,0.68
2019-05-15T04:42:54.546Z,0.88
2019-05-15T04:43:54.530Z,0.89
2019-05-15T04:44:54.525Z,1.01
2019-05-15T04:45:54.507Z,1.07
2019-05-15T04:46:54.521Z,1.16
2019-05-15T04:47:54.484Z,1.26
2019-05-15T04:48:54.480Z,1.37
2019-05-15T04:49:54.466Z,1.51
2019-05-15T04:50:54.453Z,1.60
2019-05-15T04:51:54.472Z,1.61
2019-05-15T04:52:54.436Z,1.57
2019-05-15T04:53:54.416Z,1.75
2019-05-15T04:54:54.423Z,1.91
2019-05-15T04:55:54.405Z,2.52
2019-05-15T04:56:54.388Z,3.76
2019-05-15T04:57:54.389Z,4.92
2019-05-15T04:58:54.368Z,5.85
2019-05-15T04:59:54.355Z,6.72
2019-05-15T05:00:54.357Z,7.44
2019-05-15T05:02:12.987Z,8.20
2019-05-15T05:02:55.346Z,8.71
2019-05-15T05:03:54.312Z,9.31
2019-05-15T05:04:54.298Z,9.82
2019-05-15T05:05:54.302Z,10.28
2019-05-15T05:06:54.276Z,10.74
2019-05-15T05:07:54.264Z,11.35
2019-05-15T05:08:54.302Z,11.77
2019-05-15T05:09:54.244Z,12.11
2019-05-15T05:10:54.230Z,12.33
2019-05-15T05:11:54.231Z,12.49
2019-05-15T05:12:54.208Z,12.19
2019-05-15T05:13:54.195Z,12.16
2019-05-15T05:14:54.200Z,12.30
2019-05-15T05:15:54.174Z,12.60
2019-05-15T05:16:54.169Z,12.96
2019-05-15T05:17:54.175Z,13.33
2019-05-15T05:18:54.143Z,13.65
2019-05-15T05:19:54.154Z,13.81
2019-05-15T05:20:54.117Z,13.98
2019-05-15T05:21:54.108Z,14.06
2019-05-15T05:22:54.106Z,14.43
2019-05-15T05:23:54.091Z,14.81
2019-05-15T05:24:54.071Z,15.23
2019-05-15T05:25:54.075Z,15.56
2019-05-15T05:26:54.051Z,15.76
2019-05-15T05:27:54.059Z,15.94
2019-05-15T05:28:54.030Z,16.15
2019-05-15T05:29:54.029Z,16.49
2019-05-15T05:30:54.018Z,16.71
2019-05-15T05:31:54.009Z,16.45
2019-05-15T05:32:53.994Z,16.40
2019-05-15T05:33:53.975Z,16.70
2019-05-15T05:34:54.028Z,16.98
2019-05-15T05:35:53.960Z,16.62
2019-05-15T05:36:53.941Z,16.71
2019-05-15T05:37:53.937Z,16.98
2019-05-15T05:38:53.919Z,16.98
2019-05-15T05:39:53.907Z,16.70
2019-05-15T05:40:53.929Z,16.38
2019-05-15T05:41:53.881Z,15.38
2019-05-15T05:42:53.918Z,14.65
2019-05-15T05:43:53.861Z,13.95
2019-05-15T05:44:53.854Z,13.87
2019-05-15T05:45:53.855Z,14.44
2019-05-15T05:46:53.873Z,14.99
2019-05-15T05:47:53.840Z,15.48
2019-05-15T05:48:53.804Z,15.48
2019-05-15T05:49:53.792Z,15.31
2019-05-15T05:50:53.785Z,15.45
2019-05-15T05:51:53.784Z,14.21
2019-05-15T05:52:53.782Z,13.22
2019-05-15T05:53:53.762Z,12.97
2019-05-15T05:54:53.741Z,13.63
2019-05-15T05:55:53.731Z,13.61
2019-05-15T05:56:53.720Z,12.82
2019-05-15T05:57:53.705Z,12.01
2019-05-15T05:58:53.736Z,12.30
2019-05-15T05:59:53.691Z,11.87
2019-05-15T06:00:53.679Z,12.09
2019-05-15T06:01:53.660Z,11.89
2019-05-15T06:02:53.659Z,12.54
2019-05-15T06:03:53.640Z,13.58
2019-05-15T06:04:53.666Z,14.35
2019-05-15T06:05:53.627Z,14.72
2019-05-15T06:07:06.164Z,14.75
2019-05-15T06:07:54.591Z,15.43
2019-05-15T06:08:53.588Z,15.85
2019-05-15T06:09:53.571Z,16.35
2019-05-15T06:10:53.581Z,15.33
2019-05-15T06:11:53.592Z,15.12
2019-05-15T06:12:53.539Z,15.21
2019-05-15T06:13:53.529Z,15.72
2019-05-15T06:14:53.547Z,16.42
2019-05-15T06:15:53.512Z,16.62
2019-05-15T06:16:53.502Z,16.68
2019-05-15T06:17:53.491Z,16.31
2019-05-15T06:18:53.471Z,16.71
2019-05-15T06:19:53.460Z,16.77
2019-05-15T06:20:53.460Z,15.02
2019-05-15T06:21:57.319Z,15.30
2019-05-15T06:22:53.426Z,15.93
2019-05-15T06:23:55.975Z,16.50
2019-05-15T06:24:53.404Z,16.56
2019-05-15T06:25:53.416Z,17.03
2019-05-15T06:26:53.397Z,17.30
2019-05-15T06:27:53.371Z,17.62
2019-05-15T06:28:53.359Z,17.71
2019-05-15T06:29:53.356Z,17.97
2019-05-15T06:30:53.363Z,18.17
2019-05-15T06:31:53.328Z,18.64
2019-05-15T06:33:04.440Z,17.70
2019-05-15T06:33:54.304Z,16.90
2019-05-15T06:34:53.299Z,16.89
2019-05-15T06:35:53.298Z,17.00
2019-05-15T06:36:53.298Z,15.86
2019-05-15T06:37:53.264Z,15.41
2019-05-15T06:38:53.250Z,15.76
2019-05-15T06:39:53.241Z,16.48
2019-05-15T06:40:53.245Z,16.93
2019-05-15T06:41:53.228Z,17.28
2019-05-15T06:42:53.208Z,17.81
2019-05-15T06:43:53.208Z,18.37
2019-05-15T06:44:53.187Z,18.72
2019-05-15T06:45:53.176Z,18.61
2019-05-15T06:46:53.165Z,17.50
2019-05-15T06:47:53.152Z,17.67
2019-05-15T06:48:53.178Z,17.71
2019-05-15T06:49:53.135Z,17.91
2019-05-15T06:50:53.120Z,17.74
2019-05-15T06:51:53.113Z,18.03
2019-05-15T06:52:53.098Z,18.36
2019-05-15T06:53:53.088Z,18.67
2019-05-15T06:54:53.097Z,18.94
2019-05-15T06:55:53.069Z,19.06
2019-05-15T06:56:53.055Z,18.36
2019-05-15T06:57:53.071Z,18.47
2019-05-15T06:58:53.036Z,18.95
2019-05-15T06:59:53.032Z,19.39
2019-05-15T07:00:53.017Z,18.92
2019-05-15T07:01:53.009Z,18.28
2019-05-15T07:02:52.989Z,18.47
2019-05-15T07:03:53.010Z,18.76
2019-05-15T07:04:52.978Z,18.70
2019-05-15T07:05:52.971Z,18.52
2019-05-15T07:06:52.951Z,17.92
2019-05-15T07:07:52.934Z,17.88
2019-05-15T07:08:52.934Z,17.50
2019-05-15T07:09:52.948Z,17.10
2019-05-15T07:10:52.911Z,16.86
2019-05-15T07:11:52.907Z,17.28
2019-05-15T07:12:52.880Z,17.78
2019-05-15T07:13:52.869Z,18.18
2019-05-15T07:14:52.858Z,18.42
2019-05-15T07:15:52.874Z,18.61
2019-05-15T07:16:52.853Z,18.57
2019-05-15T07:17:52.825Z,18.03
2019-05-15T07:18:52.819Z,17.78
2019-05-15T07:19:52.804Z,17.76
2019-05-15T07:20:52.816Z,16.93
2019-05-15T07:21:52.794Z,15.76
2019-05-15T07:22:52.782Z,15.02
2019-05-15T07:23:52.780Z,15.48
2019-05-15T07:24:52.751Z,15.66
2019-05-15T07:25:52.757Z,15.15
2019-05-15T07:26:52.747Z,14.29
2019-05-15T07:27:52.756Z,14.29
2019-05-15T07:28:52.729Z,14.91
2019-05-15T07:29:52.708Z,15.42
2019-05-15T07:30:52.714Z,16.18
2019-05-15T07:31:52.684Z,16.45
2019-05-15T07:32:52.663Z,17.18
2019-05-15T07:33:52.676Z,17.43
2019-05-15T07:34:52.693Z,17.81
2019-05-15T07:35:52.643Z,17.43
2019-05-15T07:36:52.623Z,16.95
2019-05-15T07:37:52.634Z,15.36
2019-05-15T07:38:52.655Z,15.05
2019-05-15T07:39:52.598Z,15.76
2019-05-15T07:40:59.451Z,16.50
2019-05-15T07:41:53.570Z,16.96
2019-05-15T07:42:52.557Z,17.29
2019-05-15T07:43:52.618Z,17.14
2019-05-15T07:44:52.557Z,16.90
2019-05-15T07:45:55.288Z,16.38
2019-05-15T07:46:52.524Z,15.03
2019-05-15T07:47:52.502Z,15.43
2019-05-15T07:48:52.494Z,16.26
2019-05-15T07:49:52.496Z,16.27
2019-05-15T07:50:52.482Z,16.20
2019-05-15T07:51:52.458Z,16.16
2019-05-15T07:52:52.460Z,15.27
2019-05-15T07:53:52.459Z,15.43
2019-05-15T07:54:52.443Z,15.49
2019-05-15T07:55:52.516Z,16.16
2019-05-15T07:56:52.408Z,17.03
2019-05-15T07:57:52.399Z,17.78
2019-05-15T07:58:52.910Z,18.49
2019-05-15T07:59:52.391Z,18.70
2019-05-15T08:00:52.371Z,17.62
2019-05-15T08:01:52.354Z,16.42
2019-05-15T08:02:52.342Z,17.00
2019-05-15T08:04:09.324Z,17.79
2019-05-15T08:04:53.345Z,18.36
2019-05-15T08:06:00.094Z,18.22
2019-05-15T08:06:53.303Z,17.50
2019-05-15T08:07:52.285Z,17.29
2019-05-15T08:08:52.280Z,16.95
2019-05-15T08:09:52.295Z,16.27
2019-05-15T08:10:52.256Z,16.98
2019-05-15T08:11:52.243Z,17.50
2019-05-15T08:12:52.237Z,17.50
2019-05-15T08:13:52.224Z,16.93
2019-05-15T08:14:52.229Z,16.99
2019-05-15T08:15:52.224Z,17.26
2019-05-15T08:16:52.195Z,17.30
2019-05-15T08:18:03.283Z,16.30
2019-05-15T08:18:53.177Z,15.63
2019-05-15T08:19:52.170Z,15.85
2019-05-15T08:20:52.177Z,15.23
2019-05-15T08:21:52.156Z,15.79
2019-05-15T08:22:52.145Z,16.59
2019-05-15T08:23:52.138Z,17.04
2019-05-15T08:24:52.109Z,16.75
2019-05-15T08:25:52.097Z,16.96
2019-05-15T08:26:52.137Z,17.26
2019-05-15T08:27:52.087Z,17.71
2019-05-15T08:28:52.063Z,17.81
2019-05-15T08:29:52.054Z,16.48
2019-05-15T08:30:52.104Z,16.81
2019-05-15T08:31:52.050Z,17.55
2019-05-15T08:32:52.045Z,18.31
2019-05-15T08:33:52.016Z,18.80
2019-05-15T08:34:52.013Z,18.72
2019-05-15T08:35:52.185Z,18.97
2019-05-15T08:36:52.001Z,18.74
2019-05-15T08:37:51.971Z,18.09
2019-05-15T08:38:51.967Z,18.27
2019-05-15T08:39:52.037Z,18.39
2019-05-15T08:40:51.940Z,18.72
2019-05-15T08:41:51.978Z,18.62
2019-05-15T08:42:56.533Z,18.67
2019-05-15T08:43:52.912Z,18.47
2019-05-15T08:44:51.902Z,18.70
2019-05-15T08:45:51.885Z,18.83
2019-05-15T08:46:51.887Z,18.76
2019-05-15T08:47:51.926Z,18.46
2019-05-15T08:48:51.855Z,18.04
2019-05-15T08:49:51.837Z,18.19
2019-05-15T08:50:51.833Z,18.00
2019-05-15T08:51:51.856Z,18.55
2019-05-15T08:52:51.816Z,18.61
2019-05-15T08:53:51.829Z,18.42
2019-05-15T08:54:51.793Z,18.47
2019-05-15T08:55:51.773Z,18.61
2019-05-15T08:56:51.771Z,19.05
2019-05-15T08:57:55.549Z,19.46
2019-05-15T08:58:51.742Z,19.63
2019-05-15T08:59:51.736Z,19.47
2019-05-15T09:00:52.551Z,19.38
2019-05-15T09:01:51.711Z,19.17
2019-05-15T09:02:51.708Z,19.06
2019-05-15T09:03:51.699Z,18.64
2019-05-15T09:04:51.688Z,18.73
2019-05-15T09:05:51.668Z,18.95
2019-05-15T09:06:51.690Z,18.70
2019-05-15T09:07:51.655Z,18.82
2019-05-15T09:08:51.650Z,18.82
2019-05-15T09:09:51.625Z,18.70
2019-05-15T09:10:51.632Z,18.61
2019-05-15T09:11:51.614Z,18.42
2019-05-15T09:12:54.291Z,17.95
2019-05-15T09:13:53.421Z,17.66
2019-05-15T09:14:51.581Z,17.32
2019-05-15T09:15:51.561Z,17.15
2019-05-15T09:16:51.574Z,16.56
2019-05-15T09:18:00.456Z,16.11
2019-05-15T09:18:52.541Z,15.86
2019-05-15T09:19:51.519Z,15.66
2019-05-15T09:20:51.531Z,15.39
2019-05-15T09:21:51.499Z,15.20
2019-05-15T09:22:51.503Z,15.24
2019-05-15T09:23:51.472Z,15.28
2019-05-15T09:24:51.463Z,15.24
2019-05-15T09:25:51.465Z,15.19
2019-05-15T09:26:51.442Z,15.05
2019-05-15T09:27:51.432Z,15.13
2019-05-15T09:28:51.448Z,15.21
2019-05-15T09:29:51.411Z,15.39
2019-05-15T09:30:51.412Z,15.51
2019-05-15T09:31:51.406Z,15.45
2019-05-15T09:32:51.377Z,15.38
2019-05-15T09:33:51.368Z,15.28
2019-05-15T09:34:55.155Z,15.33
2019-05-15T09:35:51.381Z,15.39
2019-05-15T09:36:51.342Z,15.28
2019-05-15T09:37:51.329Z,15.56
2019-05-15T09:38:51.317Z,15.38
2019-05-15T09:39:51.310Z,15.33
2019-05-15T09:40:51.418Z,15.19
2019-05-15T09:41:54.467Z,15.15
2019-05-15T09:42:51.281Z,15.05
2019-05-15T09:43:51.269Z,14.99
2019-05-15T09:44:51.259Z,14.84
2019-05-15T09:45:51.238Z,15.23
2019-05-15T09:46:51.222Z,15.48
2019-05-15T09:47:51.219Z,15.45
2019-05-15T09:48:52.011Z,15.31
2019-05-15T09:49:51.190Z,15.42
2019-05-15T09:50:51.179Z,15.79
2019-05-15T09:51:51.168Z,15.97
2019-05-15T09:52:51.160Z,16.35
2019-05-15T09:53:51.152Z,16.52
2019-05-15T09:54:51.176Z,16.44
2019-05-15T09:55:51.127Z,16.33
2019-05-15T09:56:51.116Z,16.16
2019-05-15T09:57:51.115Z,16.14
2019-05-15T09:58:51.102Z,15.94
2019-05-15T09:59:51.098Z,15.88
2019-05-15T10:00:53.079Z,15.94
2019-05-15T10:01:51.073Z,15.92
2019-05-15T10:02:51.083Z,15.94
2019-05-15T10:03:51.041Z,15.54
2019-05-15T10:05:05.511Z,15.61
2019-05-15T10:05:52.012Z,15.93
2019-05-15T10:06:51.017Z,16.03
2019-05-15T10:07:51.003Z,16.20
2019-05-15T10:08:51.011Z,16.20
2019-05-15T10:09:52.493Z,15.92
2019-05-15T10:10:50.978Z,16.11
2019-05-15T10:11:50.955Z,16.38
2019-05-15T10:12:50.987Z,16.68
2019-05-15T10:13:50.931Z,16.52
2019-05-15T10:14:50.933Z,16.52
2019-05-15T10:15:51.352Z,16.80
2019-05-15T10:16:50.913Z,16.45
2019-05-15T10:17:51.352Z,16.52
2019-05-15T10:18:51.305Z,16.50
2019-05-15T10:19:50.920Z,16.50
2019-05-15T10:20:50.878Z,16.58
2019-05-15T10:21:52.996Z,16.58
2019-05-15T10:22:50.839Z,16.56
2019-05-15T10:23:50.832Z,15.49
2019-05-15T10:24:51.164Z,15.31
2019-05-15T10:25:50.807Z,15.31
2019-05-15T10:26:50.808Z,15.51
2019-05-15T10:27:50.790Z,15.30
2019-05-15T10:28:50.780Z,15.26
2019-05-15T10:29:50.772Z,15.21
2019-05-15T10:30:50.743Z,15.41
2019-05-15T10:31:50.743Z,15.66
2019-05-15T10:32:50.734Z,15.38
2019-05-15T10:33:50.716Z,14.93
2019-05-15T10:34:50.730Z,15.11
2019-05-15T10:35:50.696Z,15.23
2019-05-15T10:36:50.679Z,15.33
2019-05-15T10:37:50.728Z,15.28
2019-05-15T10:38:50.719Z,15.19
2019-05-15T10:39:52.757Z,15.33
2019-05-15T10:41:03.644Z,15.08
2019-05-15T10:41:51.643Z,14.81
2019-05-15T10:42:50.628Z,15.03
2019-05-15T10:43:56.544Z,15.24
2019-05-15T10:44:51.591Z,15.48
2019-05-15T10:45:54.465Z,15.67
2019-05-15T10:46:50.593Z,16.07
2019-05-15T10:47:50.603Z,16.31
2019-05-15T10:48:50.553Z,16.33
2019-05-15T10:49:50.549Z,16.42
2019-05-15T10:50:50.568Z,16.45
2019-05-15T10:51:50.520Z,16.55
2019-05-15T10:52:50.499Z,15.52
2019-05-15T10:53:50.494Z,15.03
2019-05-15T10:54:50.478Z,14.80
2019-05-15T10:55:50.482Z,14.83
2019-05-15T10:56:50.480Z,15.20
2019-05-15T10:57:50.507Z,15.26
2019-05-15T10:58:50.802Z,15.20
2019-05-15T10:59:50.428Z,15.28
2019-05-15T11:00:50.420Z,15.70
2019-05-15T11:01:50.420Z,15.94
2019-05-15T11:02:50.412Z,16.03
2019-05-15T11:03:50.434Z,15.63
2019-05-15T11:04:50.392Z,15.70
2019-05-15T11:05:50.367Z,15.76
2019-05-15T11:06:50.358Z,15.72
2019-05-15T11:07:50.340Z,15.78
2019-05-15T11:08:51.478Z,15.85
2019-05-15T11:09:50.334Z,15.88
2019-05-15T11:10:50.306Z,16.04
2019-05-15T11:11:51.635Z,16.15
2019-05-15T11:12:50.284Z,16.23
2019-05-15T11:13:50.316Z,16.20
2019-05-15T11:14:50.258Z,16.45
2019-05-15T11:15:50.258Z,16.42
2019-05-15T11:16:50.237Z,16.26
2019-05-15T11:17:50.228Z,16.16
2019-05-15T11:18:53.423Z,16.04
2019-05-15T11:19:50.229Z,15.96
2019-05-15T11:20:50.197Z,15.89
2019-05-15T11:21:50.205Z,15.96
2019-05-15T11:22:50.261Z,16.14
2019-05-15T11:23:50.183Z,16.09
2019-05-15T11:24:52.983Z,16.26
2019-05-15T11:25:50.143Z,16.27
2019-05-15T11:26:50.259Z,16.22
2019-05-15T11:27:50.162Z,16.14
2019-05-15T11:28:50.126Z,16.34
2019-05-15T11:29:50.110Z,16.48
2019-05-15T11:30:50.086Z,16.50
2019-05-15T11:31:50.070Z,16.44
2019-05-15T11:32:50.064Z,16.55
2019-05-15T11:33:50.068Z,16.60
2019-05-15T11:34:50.050Z,16.68
2019-05-15T11:36:01.232Z,16.44
2019-05-15T11:36:51.018Z,16.58
2019-05-15T11:37:56.773Z,16.48
2019-05-15T11:38:50.989Z,16.45
2019-05-15T11:39:50.060Z,16.48
2019-05-15T11:40:49.970Z,16.44
2019-05-15T11:41:49.965Z,16.15
2019-05-15T11:42:49.980Z,15.76
2019-05-15T11:43:49.939Z,16.07
2019-05-15T11:44:53.183Z,16.44
2019-05-15T11:45:49.966Z,16.83
2019-05-15T11:46:49.932Z,17.00
2019-05-15T11:47:49.912Z,17.29
2019-05-15T11:48:50.052Z,17.33
2019-05-15T11:49:49.874Z,17.55
2019-05-15T11:50:49.895Z,17.40
2019-05-15T11:51:49.852Z,17.50
2019-05-15T11:52:49.870Z,17.57
2019-05-15T11:53:49.833Z,17.92
2019-05-15T11:54:49.819Z,17.91
2019-05-15T11:55:49.819Z,18.03
2019-05-15T11:56:49.797Z,17.91
2019-05-15T11:57:52.356Z,18.17
2019-05-15T11:58:50.784Z,18.43
2019-05-15T11:59:55.384Z,18.61
2019-05-15T12:00:50.754Z,18.73
2019-05-15T12:01:49.741Z,18.67
2019-05-15T12:02:49.729Z,18.74
2019-05-15T12:03:49.729Z,18.54
2019-05-15T12:04:49.714Z,18.50
2019-05-15T12:05:49.698Z,17.54
2019-05-15T12:06:58.820Z,17.35
2019-05-15T12:07:50.675Z,17.06
2019-05-15T12:08:49.698Z,17.07
2019-05-15T12:09:49.651Z,17.11
2019-05-15T12:10:49.660Z,16.56
2019-05-15T12:11:49.644Z,16.07
2019-05-15T12:12:49.871Z,15.86
2019-05-15T12:13:49.624Z,15.78
2019-05-15T12:14:49.773Z,15.70
2019-05-15T12:15:49.634Z,15.52
2019-05-15T12:17:05.156Z,15.51
2019-05-15T12:17:50.567Z,15.06
2019-05-15T12:18:49.568Z,15.19
2019-05-15T12:19:55.104Z,15.33
2019-05-15T12:20:50.583Z,15.60
2019-05-15T12:21:49.541Z,15.93
2019-05-15T12:22:49.555Z,16.25
2019-05-15T12:23:49.546Z,16.44
2019-05-15T12:24:50.160Z,16.73
2019-05-15T12:25:49.470Z,16.95
2019-05-15T12:26:49.507Z,16.93
2019-05-15T12:27:49.520Z,17.13
2019-05-15T12:28:49.449Z,17.33
2019-05-15T12:29:49.486Z,17.32
2019-05-15T12:30:49.443Z,17.40
2019-05-15T12:31:49.732Z,17.55
2019-05-15T12:32:49.527Z,17.64
2019-05-15T12:33:49.405Z,17.57
2019-05-15T12:34:49.701Z,17.40
2019-05-15T12:35:50.899Z,17.22
2019-05-15T12:36:56.656Z,17.26
2019-05-15T12:37:50.382Z,17.26
2019-05-15T12:38:50.294Z,17.25
2019-05-15T12:59:50.094Z,17.35
2019-05-15T13:00:49.111Z,17.13
2019-05-15T13:01:49.077Z,16.90
2019-05-15T13:02:49.320Z,16.86
2019-05-15T13:03:49.053Z,16.89
2019-05-15T13:04:49.056Z,16.83
2019-05-15T13:05:49.041Z,16.92
2019-05-15T13:07:10.143Z,17.13
2019-05-15T13:07:50.006Z,17.08
2019-05-15T13:08:49.106Z,17.08
2019-05-15T13:09:48.999Z,16.98
2019-05-15T13:10:48.990Z,17.15
2019-05-15T13:11:48.983Z,17.41
2019-05-15T13:13:00.915Z,17.82
2019-05-15T13:13:49.945Z,18.02
2019-05-15T13:14:48.965Z,18.13
2019-05-15T13:15:48.942Z,18.19
2019-05-15T13:16:48.928Z,18.42
2019-05-15T13:17:53.041Z,18.64
2019-05-15T13:18:48.918Z,18.52